Time;durP1;ratioP1;P1;durP2;ratioP2;P2;SDS_P1;SDS_P2;PMS_P1;PMS_P2;Temp;Humidity;BMP_temperature;BMP_pressure;BME280_temperature;BME280_humidity;BME280_pressure;Samples;Min_cycle;Max_cycle;Signal;HPM_P1;HPM_P2
2023/11/23 00:00:08;;;;;;;20.00;19.20;;;21.50;58.10;;;;;;5011643;28;20442;-67
2023/11/23 00:02:38;;;;;;;20.63;19.83;;;21.50;58.10;;;;;;5011489;28;20448;-67
2023/11/23 00:05:06;;;;;;;21.20;20.30;;;21.50;58.20;;;;;;5011783;28;20462;-68
2023/11/23 00:07:33;;;;;;;20.57;19.67;;;21.50;58.10;;;;;;5011403;28;20445;-67
2023/11/23 00:10:00;;;;;;;21.10;20.10;;;21.50;58.20;;;;;;5011549;28;20484;-68
2023/11/23 00:12:27;;;;;;;20.57;19.50;;;21.50;58.20;;;;;;5011585;28;20481;-67
2023/11/23 00:14:54;;;;;;;20.73;19.93;;;21.40;58.10;;;;;;5011737;28;20486;-67
2023/11/23 00:17:21;;;;;;;20.27;19.57;;;21.50;58.20;;;;;;5011476;28;20564;-68
2023/11/23 00:19:49;;;;;;;20.57;19.67;;;21.50;58.20;;;;;;5011346;28;20972;-67
2023/11/23 00:22:16;;;;;;;22.00;20.90;;;21.40;58.20;;;;;;5011462;28;20477;-67
2023/11/23 00:24:43;;;;;;;20.60;19.73;;;21.40;58.20;;;;;;5011257;28;20506;-68
2023/11/23 00:27:10;;;;;;;21.17;20.37;;;21.40;58.20;;;;;;5011644;28;20492;-67
2023/11/23 00:29:37;;;;;;;19.30;18.60;;;21.40;58.20;;;;;;5011325;28;20446;-69
2023/11/23 00:32:05;;;;;;;21.70;20.87;;;21.40;58.20;;;;;;5011368;28;20469;-67
2023/11/23 00:34:31;;;;;;;20.43;19.70;;;21.40;58.20;;;;;;5011987;28;20501;-67
2023/11/23 00:37:00;;;;;;;19.13;18.47;;;21.40;58.30;;;;;;5006910;28;20883;-67
2023/11/23 00:39:27;;;;;;;19.83;19.13;;;21.40;58.40;;;;;;5015172;28;20869;-67
2023/11/23 00:41:54;;;;;;;19.70;19.00;;;21.40;58.40;;;;;;5014754;28;20441;-67
2023/11/23 00:44:21;;;;;;;20.47;19.57;;;21.40;58.40;;;;;;5016327;28;20485;-67
2023/11/23 00:46:48;;;;;;;23.37;22.47;;;21.30;58.30;;;;;;5014704;28;20472;-68
2023/11/23 00:49:14;;;;;;;20.30;19.30;;;21.30;58.40;;;;;;5014952;28;20967;-67
2023/11/23 00:51:42;;;;;;;21.90;21.10;;;21.30;58.40;;;;;;5014643;28;20476;-69
2023/11/23 00:54:10;;;;;;;19.87;18.97;;;21.30;58.50;;;;;;5014707;28;20489;-67
2023/11/23 00:56:37;;;;;;;18.63;17.93;;;21.30;58.50;;;;;;5014466;28;20447;-67
2023/11/23 00:59:04;;;;;;;20.43;19.63;;;21.30;58.50;;;;;;5014516;28;20445;-67
2023/11/23 01:01:31;;;;;;;20.27;19.47;;;21.30;58.40;;;;;;5014787;28;20476;-68
2023/11/23 01:03:58;;;;;;;19.60;18.90;;;21.30;58.40;;;;;;5014410;28;20493;-67
2023/11/23 01:06:25;;;;;;;19.87;18.87;;;21.30;58.40;;;;;;5014488;28;20477;-68
2023/11/23 01:08:52;;;;;;;19.67;18.97;;;21.30;58.50;;;;;;5014272;28;20874;-67
2023/11/23 01:11:20;;;;;;;19.37;18.33;;;21.30;58.50;;;;;;5014286;28;20897;-68
2023/11/23 01:13:47;;;;;;;20.23;19.53;;;21.20;58.50;;;;;;5014613;28;20562;-68
2023/11/23 01:16:14;;;;;;;20.87;20.13;;;21.30;58.60;;;;;;5014230;28;20512;-68
2023/11/23 01:18:42;;;;;;;20.27;19.43;;;21.20;58.50;;;;;;5014056;28;20556;-68
2023/11/23 01:21:08;;;;;;;20.70;19.80;;;21.20;58.60;;;;;;5014224;28;20454;-68
2023/11/23 01:23:35;;;;;;;19.70;19.00;;;21.20;58.50;;;;;;5013985;28;20879;-66
2023/11/23 01:26:02;;;;;;;19.90;19.10;;;21.20;58.50;;;;;;5021408;28;20863;-68
2023/11/23 01:28:30;;;;;;;20.30;19.57;;;21.30;58.50;;;;;;5014071;28;20474;-68
2023/11/23 01:30:57;;;;;;;21.47;20.67;;;21.30;58.50;;;;;;5013842;28;20466;-68
2023/11/23 01:33:24;;;;;;;21.10;20.30;;;21.20;58.40;;;;;;5014044;28;20481;-67
2023/11/23 01:35:51;;;;;;;19.77;18.80;;;21.20;58.30;;;;;;5015590;28;20473;-68
2023/11/23 01:38:18;;;;;;;19.97;19.27;;;21.20;58.20;;;;;;5019422;28;20556;-68
2023/11/23 01:40:46;;;;;;;19.30;18.60;;;21.20;58.20;;;;;;5013636;28;20473;-68
2023/11/23 01:43:13;;;;;;;19.00;18.30;;;21.20;58.30;;;;;;5013854;28;20446;-68
2023/11/23 01:45:41;;;;;;;20.67;19.97;;;21.20;58.30;;;;;;5013564;28;20476;-68
2023/11/23 01:48:08;;;;;;;20.80;20.10;;;21.20;58.30;;;;;;5013354;28;20438;-68
2023/11/23 01:50:38;;;;;;;19.90;19.20;;;21.20;58.20;;;;;;5013705;28;20446;-67
2023/11/23 01:53:05;;;;;;;19.47;18.67;;;21.20;58.20;;;;;;5006073;28;20450;-68
2023/11/23 01:55:32;;;;;;;19.90;19.00;;;21.20;58.20;;;;;;5013589;28;20890;-68
2023/11/23 01:58:02;;;;;;;19.97;19.17;;;21.20;58.20;;;;;;5018739;28;20905;-68
2023/11/23 02:00:30;;;;;;;21.30;20.60;;;21.20;58.30;;;;;;5013628;28;20828;-68
2023/11/23 02:03:00;;;;;;;21.23;20.40;;;21.20;58.30;;;;;;5013312;28;20465;-68
2023/11/23 02:05:28;;;;;;;20.37;19.47;;;21.20;58.30;;;;;;5013267;28;21044;-68
2023/11/23 02:07:55;;;;;;;20.67;19.97;;;21.20;58.40;;;;;;5018052;28;20442;-67
2023/11/23 02:10:22;;;;;;;20.67;19.87;;;21.20;58.40;;;;;;5021196;28;20473;-68
2023/11/23 02:12:50;;;;;;;21.33;20.53;;;21.20;58.40;;;;;;5013161;28;20453;-68
2023/11/23 02:15:17;;;;;;;20.10;19.40;;;21.20;58.40;;;;;;5013011;28;20894;-68
2023/11/23 02:17:44;;;;;;;20.00;19.30;;;21.20;58.40;;;;;;5012952;28;20565;-68
2023/11/23 02:20:13;;;;;;;21.20;20.50;;;21.10;58.30;;;;;;5015687;28;20473;-67
2023/11/23 02:22:40;;;;;;;19.47;18.77;;;21.10;58.40;;;;;;5012962;28;20456;-68
2023/11/23 02:25:09;;;;;;;20.67;19.97;;;21.10;58.40;;;;;;5012868;28;20493;-68
2023/11/23 02:27:36;;;;;;;20.17;19.57;;;21.10;58.30;;;;;;5012963;28;20466;-68
2023/11/23 02:30:03;;;;;;;19.77;19.07;;;21.10;58.40;;;;;;5005113;28;20443;-68
2023/11/23 02:32:31;;;;;;;20.37;19.67;;;21.10;58.40;;;;;;5021226;28;20446;-68
2023/11/23 02:34:58;;;;;;;19.60;18.90;;;21.10;58.40;;;;;;5012544;28;20568;-67
2023/11/23 02:37:25;;;;;;;20.30;19.40;;;21.10;58.40;;;;;;5012666;28;20310;-68
2023/11/23 02:39:52;;;;;;;19.70;19.00;;;21.10;58.40;;;;;;5012837;28;21017;-68
2023/11/23 02:42:20;;;;;;;19.10;18.50;;;21.10;58.40;;;;;;5012770;28;20855;-68
2023/11/23 02:44:47;;;;;;;21.30;20.60;;;21.10;58.40;;;;;;5012445;28;20490;-68
2023/11/23 02:47:14;;;;;;;21.73;20.93;;;21.10;58.50;;;;;;5012592;28;20941;-67
2023/11/23 02:49:41;;;;;;;20.07;19.37;;;21.10;58.40;;;;;;5012579;28;20960;-68
2023/11/23 02:52:08;;;;;;;20.20;19.50;;;21.10;58.40;;;;;;5015584;28;20952;-67
2023/11/23 02:54:35;;;;;;;20.00;19.30;;;21.10;58.40;;;;;;5012306;28;20502;-68
2023/11/23 02:57:02;;;;;;;21.77;21.07;;;21.10;58.40;;;;;;5012418;28;20435;-67
2023/11/23 02:59:30;;;;;;;19.63;19.00;;;21.10;58.40;;;;;;5011785;28;20493;-68
2023/11/23 03:01:57;;;;;;;19.73;19.13;;;21.10;58.50;;;;;;5012553;28;20474;-68
2023/11/23 03:04:24;;;;;;;20.47;19.77;;;21.10;58.50;;;;;;5012179;28;20482;-68
2023/11/23 03:06:50;;;;;;;19.03;18.43;;;21.10;58.40;;;;;;5012088;28;20478;-68
2023/11/23 03:09:19;;;;;;;19.20;18.50;;;21.10;58.50;;;;;;5012576;28;20466;-68
2023/11/23 03:11:46;;;;;;;21.33;20.63;;;21.10;58.40;;;;;;5012004;28;20473;-68
2023/11/23 03:14:13;;;;;;;19.33;18.73;;;21.10;58.50;;;;;;5012155;28;20464;-68
2023/11/23 03:16:42;;;;;;;20.53;19.83;;;21.10;58.60;;;;;;5012074;28;20473;-66
2023/11/23 03:19:09;;;;;;;18.63;18.03;;;21.10;58.60;;;;;;5012043;28;20884;-68
2023/11/23 03:21:36;;;;;;;20.33;19.63;;;21.10;58.60;;;;;;5012263;28;20474;-68
2023/11/23 03:24:03;;;;;;;19.50;18.90;;;21.00;58.70;;;;;;5011829;28;20497;-68
2023/11/23 03:26:30;;;;;;;19.40;18.80;;;21.10;58.90;;;;;;5012156;28;20438;-68
2023/11/23 03:28:57;;;;;;;20.00;19.40;;;21.00;58.80;;;;;;5012018;28;20474;-68
2023/11/23 03:31:24;;;;;;;21.27;20.57;;;21.10;58.80;;;;;;5011859;28;20452;-68
2023/11/23 03:33:52;;;;;;;21.67;20.87;;;21.10;58.80;;;;;;5011976;28;20501;-68
2023/11/23 03:36:20;;;;;;;18.97;18.37;;;21.00;58.60;;;;;;5012046;28;20470;-69
2023/11/23 03:38:47;;;;;;;20.30;19.60;;;21.10;58.70;;;;;;5011681;28;20520;-67
2023/11/23 03:41:14;;;;;;;19.63;19.00;;;21.10;58.70;;;;;;5011838;28;20446;-68
2023/11/23 03:43:41;;;;;;;20.70;20.10;;;21.10;58.80;;;;;;5011585;28;20516;-68
2023/11/23 03:46:09;;;;;;;20.13;19.43;;;21.10;58.80;;;;;;5012200;28;20862;-68
2023/11/23 03:48:36;;;;;;;20.70;19.90;;;21.00;58.70;;;;;;5011884;28;20470;-68
2023/11/23 03:51:06;;;;;;;20.00;19.30;;;21.00;58.70;;;;;;5015470;28;20469;-68
2023/11/23 03:53:33;;;;;;;18.33;17.73;;;21.10;58.80;;;;;;5011610;28;20498;-68
2023/11/23 03:55:59;;;;;;;19.00;18.30;;;21.00;58.60;;;;;;5013871;28;20478;-68
2023/11/23 03:58:26;;;;;;;19.30;18.70;;;21.00;58.60;;;;;;5017095;28;20573;-68
2023/11/23 04:00:53;;;;;;;18.87;18.27;;;21.00;58.70;;;;;;5011578;28;20482;-67
2023/11/23 04:03:20;;;;;;;19.70;19.10;;;21.00;58.60;;;;;;5011611;28;20470;-67
2023/11/23 04:05:47;;;;;;;20.73;20.10;;;21.00;58.60;;;;;;5011651;28;20837;-68
2023/11/23 04:08:16;;;;;;;21.53;20.73;;;21.00;58.70;;;;;;5013728;28;20989;-68
2023/11/23 04:10:43;;;;;;;20.53;19.83;;;21.00;58.70;;;;;;5017246;28;20441;-68
2023/11/23 04:13:10;;;;;;;20.60;19.90;;;21.00;58.70;;;;;;5015487;28;20470;-68
2023/11/23 04:15:37;;;;;;;21.10;20.40;;;21.00;58.70;;;;;;5015521;28;20975;-68
2023/11/23 04:18:05;;;;;;;20.40;19.60;;;21.00;58.80;;;;;;5015077;28;21028;-67
2023/11/23 04:20:32;;;;;;;20.73;19.93;;;21.00;58.80;;;;;;5022000;28;20441;-68
2023/11/23 04:22:59;;;;;;;20.07;19.37;;;21.00;58.80;;;;;;5016205;28;20971;-67
2023/11/23 04:25:28;;;;;;;20.67;20.07;;;21.00;58.80;;;;;;5015194;28;21037;-68
2023/11/23 04:27:57;;;;;;;19.37;18.77;;;21.00;58.80;;;;;;5015072;28;20445;-68
2023/11/23 04:30:25;;;;;;;19.23;18.63;;;21.00;58.80;;;;;;5015084;28;20442;-68
2023/11/23 04:32:52;;;;;;;20.57;19.20;;;21.00;58.80;;;;;;5015244;28;20446;-67
2023/11/23 04:35:19;;;;;;;20.17;19.47;;;21.00;58.70;;;;;;5015138;28;20510;-68
2023/11/23 04:37:46;;;;;;;19.20;18.60;;;21.00;58.90;;;;;;5014766;28;20493;-67
2023/11/23 04:40:13;;;;;;;19.90;19.30;;;21.00;59.00;;;;;;5015080;28;20821;-68
2023/11/23 04:42:43;;;;;;;20.67;19.97;;;21.00;59.20;;;;;;5015114;28;20469;-67
2023/11/23 04:45:10;;;;;;;21.63;20.93;;;21.00;59.20;;;;;;5014967;28;20461;-66
2023/11/23 04:47:37;;;;;;;22.20;21.40;;;21.00;59.20;;;;;;5022251;28;20510;-68
2023/11/23 04:50:05;;;;;;;21.97;21.17;;;21.00;59.30;;;;;;5015197;28;20474;-67
2023/11/23 04:52:32;;;;;;;20.50;19.90;;;21.00;59.30;;;;;;5014826;28;20469;-67
2023/11/23 04:54:59;;;;;;;21.97;21.27;;;21.00;59.30;;;;;;5014412;28;20505;-68
2023/11/23 04:57:26;;;;;;;21.87;20.80;;;21.00;59.30;;;;;;5020049;28;20522;-68
2023/11/23 04:59:54;;;;;;;21.33;20.50;;;21.00;59.20;;;;;;5014406;28;20477;-67
2023/11/23 05:02:21;;;;;;;22.60;21.90;;;21.00;59.40;;;;;;5014767;28;20496;-68
2023/11/23 05:04:47;;;;;;;21.73;21.03;;;21.00;59.40;;;;;;5014354;28;20493;-68
2023/11/23 05:07:14;;;;;;;23.37;22.60;;;21.00;59.40;;;;;;5014538;28;20466;-67
2023/11/23 05:09:41;;;;;;;25.13;24.33;;;21.00;59.50;;;;;;5021585;28;20525;-68
2023/11/23 05:12:10;;;;;;;24.17;23.37;;;21.00;59.40;;;;;;5014433;28;20469;-68
2023/11/23 05:14:37;;;;;;;26.10;25.20;;;21.00;59.50;;;;;;5014291;28;20473;-68
2023/11/23 05:17:06;;;;;;;23.93;23.23;;;21.00;59.60;;;;;;5014094;28;20470;-67
2023/11/23 05:19:32;;;;;;;24.23;23.33;;;21.00;59.60;;;;;;5014202;28;21044;-67
2023/11/23 05:21:59;;;;;;;25.60;24.80;;;21.00;59.70;;;;;;5020775;28;20474;-68
2023/11/23 05:24:26;;;;;;;26.73;25.83;;;21.00;59.80;;;;;;5014013;28;20489;-68
2023/11/23 05:26:54;;;;;;;25.33;24.53;;;21.00;59.80;;;;;;5013943;28;20474;-67
2023/11/23 05:29:22;;;;;;;24.93;24.13;;;21.00;59.80;;;;;;5014031;28;20442;-68
2023/11/23 05:31:49;;;;;;;24.37;23.47;;;21.00;59.80;;;;;;5014344;28;20469;-67
2023/11/23 05:34:17;;;;;;;24.47;23.67;;;21.00;59.80;;;;;;5013824;28;20517;-68
2023/11/23 05:36:44;;;;;;;24.60;23.80;;;21.00;59.80;;;;;;5013948;28;20525;-68
2023/11/23 05:39:11;;;;;;;27.13;26.03;;;21.00;59.60;;;;;;5005982;28;20537;-66
2023/11/23 05:41:38;;;;;;;26.27;25.17;;;21.00;59.50;;;;;;5013913;28;20438;-68
2023/11/23 05:44:06;;;;;;;26.53;25.53;;;21.00;59.30;;;;;;5014483;28;20466;-66
2023/11/23 05:46:33;;;;;;;26.77;25.57;;;21.00;59.50;;;;;;5018964;28;20921;-67
2023/11/23 05:49:00;;;;;;;28.73;26.40;;;21.00;60.60;;;;;;5027093;28;20445;-68
2023/11/23 05:51:28;;;;;;;27.53;24.97;;;21.00;62.90;;;;;;5013706;28;20465;-67
2023/11/23 05:53:55;;;;;;;29.87;26.93;;;21.00;65.70;;;;;;5013545;28;20465;-63
2023/11/23 05:56:22;;;;;;;27.57;25.90;;;21.00;67.10;;;;;;5016963;28;20474;-63
2023/11/23 05:58:48;;;;;;;29.63;27.87;;;21.10;66.60;;;;;;5013474;28;21031;-63
2023/11/23 06:01:15;;;;;;;30.73;28.90;;;21.10;65.50;;;;;;5013421;28;20870;-64
2023/11/23 06:03:42;;;;;;;28.53;26.73;;;21.10;65.20;;;;;;5013283;28;20900;-63
2023/11/23 06:06:17;;;;;;;26.60;24.80;;;21.10;65.20;;;;;;5013103;28;20441;-64
2023/11/23 06:08:46;;;;;;;26.70;25.40;;;21.10;64.80;;;;;;5013271;28;20960;-63
2023/11/23 06:11:14;;;;;;;28.40;26.80;;;21.10;64.30;;;;;;5005287;28;20470;-63
2023/11/23 06:13:42;;;;;;;28.63;27.33;;;21.10;64.20;;;;;;5013098;28;21024;-65
2023/11/23 06:16:10;;;;;;;27.57;26.07;;;21.10;63.70;;;;;;5012873;28;20446;-64
2023/11/23 06:18:37;;;;;;;26.43;25.23;;;21.10;63.40;;;;;;5012885;28;21041;-63
2023/11/23 06:21:04;;;;;;;25.47;24.30;;;21.10;63.10;;;;;;5012910;28;20482;-64
2023/11/23 06:23:31;;;;;;;28.67;27.20;;;21.20;63.00;;;;;;5012869;28;20476;-65
2023/11/23 06:25:59;;;;;;;27.40;25.90;;;21.20;62.70;;;;;;5012866;28;20573;-64
2023/11/23 06:28:26;;;;;;;26.97;25.67;;;21.20;62.50;;;;;;5012804;28;20508;-64
2023/11/23 06:30:53;;;;;;;25.57;24.37;;;21.20;62.40;;;;;;5012616;28;20477;-64
2023/11/23 06:33:20;;;;;;;25.93;24.73;;;21.20;62.00;;;;;;5012561;28;20461;-64
2023/11/23 06:35:48;;;;;;;27.50;26.33;;;21.20;61.80;;;;;;5012578;28;20450;-64
2023/11/23 06:38:15;;;;;;;26.90;25.50;;;21.20;61.60;;;;;;5012625;28;20465;-64
2023/11/23 06:40:42;;;;;;;26.87;25.17;;;21.20;61.40;;;;;;5012722;28;20901;-65
2023/11/23 06:43:10;;;;;;;27.73;26.40;;;21.20;61.20;;;;;;5012539;28;20474;-64
2023/11/23 06:45:37;;;;;;;27.27;25.80;;;21.20;61.00;;;;;;5012411;28;20453;-64
2023/11/23 06:48:04;;;;;;;25.80;24.80;;;21.20;61.00;;;;;;5012347;28;20503;-66
2023/11/23 06:50:32;;;;;;;30.07;28.03;;;21.20;60.70;;;;;;5012438;28;20466;-64
2023/11/23 06:52:59;;;;;;;29.60;28.30;;;21.20;60.80;;;;;;5012250;28;20450;-64
2023/11/23 06:55:26;;;;;;;27.40;25.93;;;21.20;60.60;;;;;;5012189;28;20493;-64
2023/11/23 06:57:53;;;;;;;28.63;27.30;;;21.20;60.40;;;;;;5012340;28;20473;-64
2023/11/23 07:00:23;;;;;;;26.50;25.20;;;21.20;60.40;;;;;;5012160;28;20513;-64
2023/11/23 07:02:51;;;;;;;28.00;26.77;;;21.20;60.40;;;;;;5012195;28;20448;-65
2023/11/23 07:05:19;;;;;;;30.97;29.60;;;21.20;60.30;;;;;;5012064;28;20462;-64
2023/11/23 07:07:47;;;;;;;28.70;27.23;;;21.20;61.10;;;;;;5012134;28;20516;-64
2023/11/23 07:10:14;;;;;;;29.63;28.30;;;21.20;60.30;;;;;;5012152;28;20442;-64
2023/11/23 07:12:41;;;;;;;28.50;27.47;;;21.30;60.40;;;;;;5012091;28;21002;-65
2023/11/23 07:15:09;;;;;;;27.10;25.80;;;21.20;60.30;;;;;;5011816;28;20504;-64
2023/11/23 07:17:37;;;;;;;25.83;24.73;;;21.20;60.20;;;;;;5012015;28;20446;-64
2023/11/23 07:20:06;;;;;;;26.97;26.00;;;21.20;60.20;;;;;;5011852;28;20840;-64
2023/11/23 07:22:33;;;;;;;25.23;24.03;;;21.20;60.10;;;;;;5011917;28;20442;-66
2023/11/23 07:25:02;;;;;;;25.33;24.43;;;21.30;60.20;;;;;;5011690;28;20468;-64
2023/11/23 07:27:28;;;;;;;26.60;25.30;;;21.30;60.10;;;;;;5011854;28;20457;-64
2023/11/23 07:29:55;;;;;;;26.57;25.60;;;21.30;60.10;;;;;;5011815;28;20811;-64
2023/11/23 07:32:22;;;;;;;25.53;24.73;;;21.30;60.00;;;;;;5011922;28;20469;-64
2023/11/23 07:34:51;;;;;;;25.60;24.60;;;21.30;60.00;;;;;;5011657;28;20992;-67
2023/11/23 07:37:17;;;;;;;26.47;25.20;;;21.30;60.00;;;;;;5011692;28;20464;-64
2023/11/23 07:39:47;;;;;;;25.07;24.27;;;21.30;59.80;;;;;;5011795;28;20510;-63
2023/11/23 07:42:15;;;;;;;23.63;22.63;;;21.30;59.80;;;;;;5011537;28;20825;-64
2023/11/23 07:44:43;;;;;;;25.27;24.43;;;21.30;59.70;;;;;;5011076;28;20477;-64
2023/11/23 07:47:13;;;;;;;27.93;26.83;;;21.30;59.70;;;;;;5011564;28;20890;-64
2023/11/23 07:49:40;;;;;;;26.97;25.47;;;21.30;59.60;;;;;;5011715;28;20442;-64
2023/11/23 07:52:08;;;;;;;24.83;23.93;;;21.30;59.60;;;;;;5011453;28;20473;-64
2023/11/23 07:54:35;;;;;;;24.93;24.13;;;21.30;59.60;;;;;;5011283;28;20493;-65
2023/11/23 07:57:02;;;;;;;28.20;27.20;;;21.30;59.50;;;;;;5011381;28;20961;-64
2023/11/23 07:59:29;;;;;;;27.30;26.20;;;21.30;59.40;;;;;;5011525;28;20924;-64
2023/11/23 08:01:57;;;;;;;28.43;27.23;;;21.30;59.40;;;;;;5011379;28;20453;-62
2023/11/23 08:04:25;;;;;;;24.73;23.80;;;21.30;59.40;;;;;;5011397;28;20549;-63
2023/11/23 08:06:52;;;;;;;23.87;22.50;;;21.30;59.30;;;;;;5011361;28;20820;-64
2023/11/23 08:09:20;;;;;;;23.47;22.47;;;21.30;59.40;;;;;;5011466;28;20512;-63
2023/11/23 08:11:52;;;;;;;27.63;26.53;;;21.30;59.40;;;;;;5011398;28;20833;-64
2023/11/23 08:14:19;;;;;;;25.67;24.77;;;21.30;59.40;;;;;;5003707;28;20481;-64
2023/11/23 08:16:46;;;;;;;27.17;25.80;;;21.30;59.40;;;;;;5011376;28;20533;-64
2023/11/23 08:19:14;;;;;;;24.67;23.63;;;21.30;59.40;;;;;;5011124;28;20513;-64
2023/11/23 08:21:41;;;;;;;25.27;24.33;;;21.30;59.30;;;;;;5011347;28;20840;-64
2023/11/23 08:24:09;;;;;;;24.50;23.50;;;21.40;59.40;;;;;;5011208;28;20556;-64
2023/11/23 08:26:38;;;;;;;26.60;25.60;;;21.30;59.30;;;;;;5011271;28;20478;-64
2023/11/23 08:29:05;;;;;;;26.60;25.60;;;21.30;59.30;;;;;;5011164;28;20497;-64
2023/11/23 08:31:32;;;;;;;25.17;24.27;;;21.30;59.20;;;;;;5011145;28;20450;-65
2023/11/23 08:33:59;;;;;;;25.93;25.03;;;21.30;59.10;;;;;;5011097;28;20466;-64
2023/11/23 08:36:26;;;;;;;24.27;23.47;;;21.30;58.90;;;;;;5011214;28;20449;-64
2023/11/23 08:38:52;;;;;;;24.50;23.70;;;21.30;58.90;;;;;;5010922;28;20477;-64
2023/11/23 08:41:24;;;;;;;25.33;24.43;;;21.30;59.00;;;;;;5011219;28;20474;-63
2023/11/23 08:43:52;;;;;;;26.40;25.40;;;21.40;59.00;;;;;;5011084;28;20858;-64
2023/11/23 08:46:19;;;;;;;27.47;26.47;;;21.40;59.00;;;;;;5011141;28;20442;-63
2023/11/23 08:48:46;;;;;;;27.30;26.20;;;21.40;59.00;;;;;;5011115;28;20529;-64
2023/11/23 08:51:14;;;;;;;28.10;27.20;;;21.40;59.00;;;;;;5010907;28;20476;-64
2023/11/23 08:53:41;;;;;;;26.50;25.60;;;21.40;59.00;;;;;;5010849;28;20484;-64
2023/11/23 08:56:08;;;;;;;26.57;25.57;;;21.40;59.50;;;;;;5010902;28;20888;-64
2023/11/23 08:58:36;;;;;;;25.30;24.50;;;21.40;59.00;;;;;;5014483;28;20453;-64
2023/11/23 09:01:05;;;;;;;25.20;24.40;;;21.40;59.00;;;;;;5014305;28;20484;-64
2023/11/23 09:03:32;;;;;;;24.10;23.30;;;21.40;58.90;;;;;;5014448;28;20450;-62
2023/11/23 09:05:59;;;;;;;26.97;25.80;;;21.40;59.00;;;;;;5014266;28;20446;-64
2023/11/23 09:08:26;;;;;;;25.90;25.10;;;21.40;58.90;;;;;;5014460;28;20525;-64
2023/11/23 09:10:54;;;;;;;25.10;24.30;;;21.40;58.90;;;;;;5014090;28;20494;-64
2023/11/23 09:13:21;;;;;;;27.00;26.00;;;21.40;58.90;;;;;;5014117;28;20450;-66
2023/11/23 09:15:48;;;;;;;23.43;22.67;;;21.40;58.90;;;;;;5014278;28;20480;-64
2023/11/23 09:18:16;;;;;;;25.17;24.37;;;21.40;58.80;;;;;;5014247;28;20862;-64
2023/11/23 09:20:43;;;;;;;24.47;23.67;;;21.40;58.80;;;;;;5014084;28;20509;-66
2023/11/23 09:23:11;;;;;;;24.57;23.77;;;21.40;58.80;;;;;;5013987;28;20795;-64
2023/11/23 09:25:38;;;;;;;24.00;23.23;;;21.40;58.70;;;;;;5014275;28;20450;-64
2023/11/23 09:28:05;;;;;;;26.77;25.87;;;21.40;58.60;;;;;;5013846;28;20446;-64
2023/11/23 09:30:32;;;;;;;23.87;23.07;;;21.40;58.50;;;;;;5014035;28;20528;-64
2023/11/23 09:32:59;;;;;;;23.30;22.60;;;21.40;58.60;;;;;;5013789;28;20825;-65
2023/11/23 09:35:27;;;;;;;24.70;23.93;;;21.40;58.60;;;;;;5013866;28;20490;-65
2023/11/23 09:37:54;;;;;;;23.00;22.30;;;21.40;58.60;;;;;;5013687;28;20481;-64
2023/11/23 09:40:23;;;;;;;23.63;22.93;;;21.40;58.60;;;;;;5013833;28;20579;-64
2023/11/23 09:42:50;;;;;;;25.93;25.03;;;21.40;58.60;;;;;;5013718;28;20453;-64
2023/11/23 09:45:20;;;;;;;23.40;22.70;;;21.40;58.70;;;;;;5013480;28;20545;-66
2023/11/23 09:47:50;;;;;;;22.23;21.40;;;21.40;58.60;;;;;;5013602;28;20508;-64
2023/11/23 09:50:18;;;;;;;25.27;24.47;;;21.40;58.60;;;;;;5013430;28;20445;-64
2023/11/23 09:52:47;;;;;;;23.20;22.40;;;21.40;58.60;;;;;;5013719;28;21015;-64
2023/11/23 09:55:16;;;;;;;24.57;23.67;;;21.40;58.60;;;;;;5013330;28;20628;-64
2023/11/23 09:57:45;;;;;;;23.50;22.77;;;21.40;58.60;;;;;;5013384;28;20533;-64
2023/11/23 10:00:14;;;;;;;24.20;23.40;;;21.40;58.50;;;;;;5013267;28;20481;-65
2023/11/23 10:02:43;;;;;;;23.40;22.60;;;21.40;58.50;;;;;;5013303;28;20438;-64
2023/11/23 10:05:16;;;;;;;24.83;24.03;;;21.50;58.50;;;;;;5013071;28;20501;-64
2023/11/23 10:07:44;;;;;;;25.20;24.20;;;21.50;58.50;;;;;;5012983;28;20533;-64
2023/11/23 10:10:14;;;;;;;23.80;23.00;;;21.50;58.50;;;;;;5013131;28;20532;-64
2023/11/23 10:12:41;;;;;;;24.23;23.53;;;21.40;58.40;;;;;;5013170;28;20989;-64
2023/11/23 10:15:10;;;;;;;24.90;24.00;;;21.40;58.40;;;;;;5012968;28;20556;-64
2023/11/23 10:17:37;;;;;;;24.53;23.83;;;21.50;58.50;;;;;;5013052;28;20449;-64
2023/11/23 10:20:10;;;;;;;24.20;23.40;;;21.50;58.50;;;;;;5013007;28;20569;-65
2023/11/23 10:22:38;;;;;;;25.30;24.50;;;21.50;58.50;;;;;;5012908;28;20471;-64
2023/11/23 10:25:06;;;;;;;22.80;22.00;;;21.50;58.50;;;;;;5012727;28;20498;-64
2023/11/23 10:27:35;;;;;;;22.87;22.17;;;21.50;58.50;;;;;;5012865;28;20930;-64
2023/11/23 10:30:04;;;;;;;22.93;21.93;;;21.50;58.50;;;;;;5012842;28;20442;-64
2023/11/23 10:32:33;;;;;;;22.37;21.63;;;21.50;58.50;;;;;;5012888;28;20446;-64
2023/11/23 10:35:07;;;;;;;23.00;22.20;;;21.50;58.50;;;;;;5012599;28;20561;-64
2023/11/23 10:37:34;;;;;;;23.57;22.77;;;21.50;58.50;;;;;;5012688;28;20449;-64
2023/11/23 10:40:03;;;;;;;24.47;23.67;;;21.50;58.50;;;;;;5012556;28;20997;-64
2023/11/23 10:42:35;;;;;;;24.13;23.23;;;21.50;58.50;;;;;;5012712;28;20446;-64
2023/11/23 10:45:02;;;;;;;22.80;22.10;;;21.50;58.40;;;;;;5012461;28;20462;-64
2023/11/23 10:47:30;;;;;;;22.40;21.70;;;21.50;58.40;;;;;;5012695;28;20474;-64
2023/11/23 10:50:00;;;;;;;24.73;23.93;;;21.50;58.40;;;;;;5012501;28;20445;-65
2023/11/23 10:52:28;;;;;;;25.10;24.30;;;21.50;58.40;;;;;;5012819;28;20492;-65
2023/11/23 10:54:55;;;;;;;23.70;22.90;;;21.50;58.40;;;;;;5012130;28;21059;-64
2023/11/23 10:57:24;;;;;;;24.23;23.23;;;21.50;58.30;;;;;;5004530;28;20449;-64
2023/11/23 10:59:54;;;;;;;23.97;23.17;;;21.50;58.30;;;;;;5012298;28;20809;-66
2023/11/23 11:02:23;;;;;;;20.97;20.37;;;21.50;58.30;;;;;;5012216;28;20952;-64
2023/11/23 11:04:50;;;;;;;25.50;24.67;;;21.50;58.30;;;;;;5012165;28;20493;-64
2023/11/23 11:07:27;;;;;;;25.40;24.60;;;21.50;58.30;;;;;;5012187;28;20529;-66
2023/11/23 11:09:59;;;;;;;25.33;24.53;;;21.50;58.40;;;;;;5012111;28;20450;-64
2023/11/23 11:12:36;;;;;;;25.00;24.13;;;21.50;58.40;;;;;;5004565;28;20438;-64
2023/11/23 11:15:07;;;;;;;24.10;23.40;;;21.50;58.40;;;;;;5011889;28;20500;-65
2023/11/23 11:17:38;;;;;;;24.93;24.10;;;21.50;58.40;;;;;;5012090;28;20438;-64
2023/11/23 11:20:09;;;;;;;25.43;24.63;;;21.50;58.40;;;;;;5011155;28;20528;-64
2023/11/23 11:22:36;;;;;;;23.70;23.00;;;21.50;58.30;;;;;;5012075;28;20450;-64
2023/11/23 11:25:04;;;;;;;24.50;23.70;;;21.50;58.30;;;;;;5011672;28;20561;-64
2023/11/23 11:27:34;;;;;;;24.30;23.10;;;21.50;58.40;;;;;;5011925;28;20481;-64
2023/11/23 11:30:01;;;;;;;25.17;24.37;;;21.50;58.30;;;;;;5011928;28;20474;-64
2023/11/23 11:32:35;;;;;;;23.90;23.20;;;21.50;58.30;;;;;;5012043;28;20954;-64
2023/11/23 11:35:03;;;;;;;24.90;24.10;;;21.50;58.20;;;;;;5011625;28;20473;-65
2023/11/23 11:37:31;;;;;;;24.63;23.93;;;21.50;58.30;;;;;;5011755;28;20446;-64
2023/11/23 11:40:00;;;;;;;23.30;22.50;;;21.50;58.20;;;;;;5011620;28;20528;-64
2023/11/23 11:42:29;;;;;;;26.47;25.60;;;21.50;58.30;;;;;;5004085;28;20813;-64
2023/11/23 11:44:56;;;;;;;24.60;23.80;;;21.50;58.20;;;;;;5011631;28;20470;-64
2023/11/23 11:47:23;;;;;;;24.93;24.13;;;21.50;58.20;;;;;;5011572;28;20446;-64
2023/11/23 11:49:52;;;;;;;23.83;23.03;;;21.50;58.30;;;;;;5011665;28;20449;-64
2023/11/23 11:52:19;;;;;;;23.27;22.57;;;21.50;58.30;;;;;;5011500;28;20841;-64
2023/11/23 11:54:47;;;;;;;24.60;23.80;;;21.50;58.30;;;;;;5061601;22;20539;-67
2023/11/23 11:57:14;;;;;;;22.90;22.20;;;21.50;58.30;;;;;;5031314;28;20460;-68
2023/11/23 11:59:44;;;;;;;23.20;22.50;;;21.50;58.30;;;;;;5031316;28;20922;-68
2023/11/23 12:02:11;;;;;;;24.03;23.23;;;21.50;58.30;;;;;;5031064;28;20570;-65
2023/11/23 12:04:39;;;;;;;24.70;23.90;;;21.50;58.30;;;;;;5025857;28;20497;-66
2023/11/23 12:07:14;;;;;;;24.30;23.60;;;21.50;58.30;;;;;;5020484;28;20464;-66
2023/11/23 12:09:41;;;;;;;23.30;22.60;;;21.60;58.40;;;;;;5023062;28;20470;-66
2023/11/23 12:12:10;;;;;;;22.40;21.70;;;21.50;58.30;;;;;;5021657;28;20479;-66
2023/11/23 12:14:37;;;;;;;22.70;22.10;;;21.50;58.30;;;;;;5019553;28;20822;-66
2023/11/23 12:17:13;;;;;;;23.60;22.90;;;21.50;58.30;;;;;;5020056;28;20485;-66
2023/11/23 12:19:51;;;;;;;23.70;23.00;;;21.50;58.30;;;;;;5022969;28;20959;-66
2023/11/23 12:22:22;;;;;;;22.00;21.40;;;21.50;58.30;;;;;;5020194;28;20476;-68
2023/11/23 12:24:49;;;;;;;26.30;25.27;;;21.60;58.40;;;;;;5019502;28;20466;-66
2023/11/23 12:27:16;;;;;;;23.50;22.80;;;21.60;58.40;;;;;;5021607;28;20446;-66
2023/11/23 12:29:44;;;;;;;23.40;22.70;;;21.50;58.30;;;;;;5022792;28;20446;-66